Green Stars — V7VZ5 — position and weather

sailwx.info

Track history (hours):
 
Tides and Currents Weather Stations Pressure Air Temp Water Temp Dewpoint Dewpoint Depression Visibility Wind Speed Wind Dir Waves Ship Positions

Green Stars

Last reported at 2017-May-29 10:27 UTC. Time now 2017-May-29 11:22 UTC.
Position N 01°28' E 103°48'.

Length 182 m; draft 7 m.

Type: Tanker. MMSI: 538004247.

Date/timePositionNaut miles runAvg speedWind from/ knotsBaromVisibWave heightAir tempDewpointWater temp
2017-May-29 10:27N 01°28' E 103°48'4 6.7
2017-May-29 09:48N 01°27' E 103°52'4 7.9
2017-May-29 09:15N 01°25' E 103°56'2 8.1
2017-May-29 09:00N 01°24' E 103°57'3 6.7
2017-May-29 08:30N 01°24' E 104°01'4 6.9
2017-May-29 07:59N 01°21' E 104°03'3 5.5
2017-May-29 07:30N 01°19' E 104°04'3 4.7
2017-May-29 06:46N 01°17' E 104°02'2 6.4
2017-May-29 06:30N 01°16' E 104°00'4 8.4
2017-May-29 06:00N 01°16' E 103°56'1 2.3
2017-May-29 05:29N 01°16' E 103°55'0 0.0
2017-May-29 04:59N 01°16' E 103°55'0 0.0
2017-May-29 04:20N 01°16' E 103°55'0 0.1
2017-May-29 03:53N 01°16' E 103°55'0 0.1
2017-May-29 03:26N 01°16' E 103°55'0 0.1
2017-May-29 02:59N 01°16' E 103°55'0 0.0
2017-May-29 02:20N 01°16' E 103°55'0 0.1
2017-May-29 01:53N 01°16' E 103°55'0 0.1
2017-May-29 01:26N 01°16' E 103°55'0 0.0
2017-May-29 00:59N 01°16' E 103°55'0 0.1
2017-May-29 00:29N 01°16' E 103°55'0 0.0
2017-May-28 23:59N 01°16' E 103°55'0 0.1
2017-May-28 23:17N 01°16' E 103°55'0 0.0
2017-May-28 22:50N 01°16' E 103°55'0 0.0
2017-May-28 22:29N 01°16' E 103°55'0 0.0
2017-May-28 21:59N 01°16' E 103°55'0 0.0
2017-May-28 21:26N 01°16' E 103°55'0 0.0
2017-May-28 20:56N 01°16' E 103°55'0 0.0
2017-May-28 20:29N 01°16' E 103°55'0 0.0
2017-May-28 19:59N 01°16' E 103°55'0 0.0
2017-May-28 19:29N 01°16' E 103°55'0 0.0
2017-May-28 18:59N 01°16' E 103°55'0 0.0
2017-May-28 18:29N 01°16' E 103°55'0 0.0
2017-May-28 17:50N 01°16' E 103°55'0 0.2
2017-May-28 17:26N 01°16' E 103°55'0 0.1
2017-May-28 16:56N 01°16' E 103°55'0 0.2
2017-May-28 16:29N 01°16' E 103°55'0 0.1
2017-May-28 15:56N 01°16' E 103°55'0 0.0
2017-May-28 15:08N 01°16' E 103°55'0 0.0
2017-May-28 14:56N 01°16' E 103°55'0 0.0
2017-May-28 13:56N 01°16' E 103°55'0 0.0
2017-May-28 13:29N 01°16' E 103°55'0 0.0
2017-May-28 12:56N 01°16' E 103°55'0 0.0
2017-May-28 12:20N 01°16' E 103°55'0 0.0
2017-May-28 11:59N 01°16' E 103°55'0 0.0
2017-May-28 11:29N 01°16' E 103°55'0 0.0
2017-May-28 10:56N 01°16' E 103°55'0 0.0
2017-May-28 10:29N 01°16' E 103°55'0 0.1
2017-May-28 09:35N 01°16' E 103°55'0 0.6
2017-May-28 09:29N 01°16' E 103°55'0 0.0
2017-May-28 08:59N 01°16' E 103°55'0 0.0
2017-May-28 08:20N 01°16' E 103°55'0 0.1
2017-May-28 07:56N 01°16' E 103°55'0 0.1
2017-May-28 07:26N 01°16' E 103°55'0 0.0
2017-May-28 06:56N 01°16' E 103°55'0 0.0
2017-May-28 06:26N 01°16' E 103°55'0 0.1
2017-May-28 05:59N 01°16' E 103°55'0 0.0
2017-May-28 05:20N 01°16' E 103°55'0 0.0
2017-May-28 04:59N 01°16' E 103°55'0 0.0
2017-May-28 04:29N 01°16' E 103°55'0 0.0
2017-May-28 03:50N 01°16' E 103°55'0 0.0
2017-May-28 03:26N 01°16' E 103°55'0 0.0
2017-May-28 02:59N 01°16' E 103°55'0 0.1
2017-May-28 02:23N 01°16' E 103°55'0 0.1
2017-May-28 01:14N 01°16' E 103°55'0 0.0
2017-May-28 00:59N 01°16' E 103°55'0 0.0
2017-May-28 00:26N 01°16' E 103°55'0 0.1
2017-May-27 23:44N 01°16' E 103°55'0 0.2
2017-May-27 23:26N 01°16' E 103°55'0 0.0
2017-May-27 22:59N 01°16' E 103°55'0 0.0
2017-May-27 22:26N 01°16' E 103°55'0 0.1
2017-May-27 21:56N 01°16' E 103°55'0 0.0
2017-May-27 21:30N 01°16' E 103°55'0 0.0
2017-May-27 21:00N 01°16' E 103°55'0 0.0
2017-May-27 20:30N 01°16' E 103°55'0 0.0
2017-May-27 20:00N 01°16' E 103°55'0 0.0
2017-May-27 19:30N 01°16' E 103°55'0 0.0
2017-May-27 19:00N 01°16' E 103°55'0 0.0
2017-May-27 18:30N 01°16' E 103°55'0 0.0
2017-May-27 18:00N 01°16' E 103°55'2 4.1
2017-May-27 17:30N 01°16' E 103°57'2 4.8
2017-May-27 17:00N 01°14' E 103°57'3 5.7
2017-May-27 16:30N 01°12' E 103°54'4 8.9
2017-May-27 16:00N 01°11' E 103°50'510.5
2017-May-27 15:30N 01°08' E 103°46'611.1
2017-May-27 15:00N 01°04' E 103°41'611.6
2017-May-27 14:30N 01°05' E 103°36'10 9.7
2017-May-27 13:30N 01°13' E 103°32'4 7.9
2017-May-27 13:00N 01°17' E 103°33'4 8.4
2017-May-27 12:30N 01°21' E 103°33'0 0.0
2017-May-26 22:19N 01°21' E 103°33'0 0.0
2017-May-26 06:58N 01°21' E 103°33'0 0.0
2017-May-26 06:30N 01°21' E 103°33'1 2.6
2017-May-26 06:00N 01°20' E 103°33'5 9.2
2017-May-26 05:31N 01°16' E 103°33'2 4.1
2017-May-26 05:00N 01°14' E 103°31'3 6.3
2017-May-26 04:30N 01°15' E 103°28'1 0.5
2017-May-26 01:55N 01°15' E 103°29'0 0.2
2017-May-26 00:25N 01°15' E 103°29'0 0.0
2017-May-25 23:58N 01°15' E 103°29'0 0.0
2017-May-25 23:16N 01°15' E 103°29'0 0.0
2017-May-25 22:55N 01°15' E 103°29'0 0.0
2017-May-25 22:16N 01°15' E 103°29'0 0.0
2017-May-25 21:43N 01°15' E 103°29'0 0.1
2017-May-25 21:22N 01°15' E 103°29'0 0.0
2017-May-25 20:37N 01°15' E 103°29'0 0.0
2017-May-25 20:04N 01°15' E 103°29'0 0.1
2017-May-25 19:55N 01°15' E 103°29'0 0.1
2017-May-25 19:22N 01°15' E 103°29'0 0.5
2017-May-25 18:58N 01°15' E 103°29'0 0.1
2017-May-25 18:07N 01°15' E 103°29'0 0.0
2017-May-25 17:52N 01°15' E 103°29'0 0.0
2017-May-25 17:22N 01°15' E 103°29'0 0.0
2017-May-25 16:49N 01°15' E 103°29'0 0.0
2017-May-25 16:25N 01°15' E 103°29'0 0.0
2017-May-25 15:46N 01°15' E 103°29'0 0.0
2017-May-25 15:28N 01°15' E 103°29'0 0.0
2017-May-25 14:43N 01°15' E 103°29'0 0.0
2017-May-25 14:25N 01°15' E 103°29'0 0.2
2017-May-25 13:28N 01°15' E 103°29'0 0.2
2017-May-25 12:49N 01°15' E 103°29'0 0.2
2017-May-25 12:28N 01°15' E 103°29'0 0.1
2017-May-25 11:55N 01°15' E 103°29'0 0.0
2017-May-25 11:28N 01°15' E 103°29'0 0.0
2017-May-25 10:58N 01°15' E 103°29'0 0.1
2017-May-25 10:31N 01°15' E 103°29'0 0.0
2017-May-25 10:01N 01°15' E 103°29'0 0.0
2017-May-25 09:28N 01°15' E 103°29'0 0.0
2017-May-25 08:58N 01°15' E 103°29'0 0.0
2017-May-25 08:28N 01°15' E 103°29'0 0.1
2017-May-25 07:58N 01°15' E 103°29'0 0.1
2017-May-25 07:16N 01°15' E 103°29'0 0.0
2017-May-25 06:58N 01°15' E 103°29'0 0.1
2017-May-25 06:25N 01°15' E 103°29'0 0.1
2017-May-25 05:46N 01°15' E 103°29'0 0.3
2017-May-25 05:10N 01°15' E 103°29'0 0.1
2017-May-25 04:52N 01°15' E 103°29'0 0.1
2017-May-25 04:28N 01°15' E 103°29'0 0.1
2017-May-25 03:19N 01°15' E 103°29'0 0.0
2017-May-25 02:58N 01°15' E 103°29'0 0.1
2017-May-25 02:28N 01°15' E 103°29'0 0.0
2017-May-25 01:54N 01°15' E 103°29'0 0.0
2017-May-25 01:16N 01°15' E 103°29'0 0.2
2017-May-25 00:49N 01°15' E 103°29'0 0.3
2017-May-25 00:25N 01°15' E 103°29'0 0.2
2017-May-24 23:54N 01°15' E 103°29'0 0.0
2017-May-24 23:28N 01°15' E 103°29'0 0.0
2017-May-24 22:58N 01°15' E 103°29'0 0.0
2017-May-24 22:24N 01°15' E 103°29'0 0.1
2017-May-24 22:01N 01°15' E 103°29'0 0.0
2017-May-24 21:28N 01°15' E 103°29'0 0.0
2017-May-24 20:58N 01°15' E 103°29'0 0.0
2017-May-24 20:30N 01°15' E 103°29'0 0.0
2017-May-24 19:57N 01°15' E 103°29'0 0.0
2017-May-24 19:21N 01°15' E 103°29'0 0.1
2017-May-24 19:00N 01°15' E 103°29'0 0.3
2017-May-24 18:21N 01°15' E 103°29'0 0.2
2017-May-24 17:57N 01°15' E 103°29'0 0.0
2017-May-24 17:22N 01°15' E 103°29'0 0.0
2017-May-24 17:00N 01°15' E 103°29'0 0.0
2017-May-24 16:30N 01°15' E 103°29'0 0.1
2017-May-24 16:01N 01°15' E 103°29'0 0.0
2017-May-24 15:30N 01°15' E 103°29'0 0.0
2017-May-24 12:31N 01°15' E 103°29'0 0.2
2017-May-24 11:57N 01°15' E 103°29'0 0.3
2017-May-24 11:30N 01°15' E 103°29'0 0.1
2017-May-24 11:00N 01°15' E 103°29'0 0.0
2017-May-24 06:12N 01°15' E 103°29'0 0.0
2017-May-23 22:48N 01°15' E 103°29'0 0.1
2017-May-23 22:30N 01°15' E 103°29'0 0.0
2017-May-23 21:51N 01°15' E 103°29'0 0.0
2017-May-23 20:57N 01°15' E 103°29'0 0.1
2017-May-23 20:30N 01°15' E 103°29'0 0.0
2017-May-23 19:57N 01°15' E 103°29'0 0.0
2017-May-23 19:30N 01°15' E 103°29'0 0.0
2017-May-23 18:59N 01°15' E 103°29'1 1.6
2017-May-23 18:30N 01°14' E 103°29'2 4.3
2017-May-23 17:58N 01°12' E 103°30'2 3.8
2017-May-23 17:30N 01°11' E 103°29'3 4.7
2017-May-23 16:58N 01°11' E 103°27'5 9.1
2017-May-23 16:27N 01°13' E 103°23'511.2
2017-May-23 15:59N 01°16' E 103°19'31710.9
2017-May-22 11:02N 05°19' E 099°54'512.9
2017-May-22 10:38N 05°23' E 099°56'212.7
2017-May-22 10:30N 05°25' E 099°57'612.4
2017-May-22 10:00N 05°30' E 099°60'5 9.6
2017-May-22 09:30N 05°35' E 100°02'0 0.6
2017-May-22 09:00N 05°35' E 100°02'0 0.5
2017-May-22 08:16N 05°35' E 100°02'0 0.2
2017-May-22 07:44N 05°34' E 100°02'3 4.2
2017-May-22 07:01N 05°35' E 099°59'0 6.0
2017-May-22 07:00N 05°35' E 099°59'5 6.5
2017-May-22 06:17N 05°36' E 099°55'2 8.1
2017-May-22 05:58N 05°37' E 099°53'  
Track history (hours):
 
Tides and Currents Weather Stations Pressure Air Temp Water Temp Dewpoint Dewpoint Depression Visibility Wind Speed Wind Dir Waves Ship Positions

Green Stars

Last reported at 2017-May-29 10:27 UTC. Time now 2017-May-29 11:22 UTC.
Position N 01°28' E 103°48'.

Length 182 m; draft 7 m.

Type: Tanker. MMSI: 538004247.

Date/timePositionNaut miles runAvg speedWind from/ knotsBaromVisibWave heightAir tempDewpointWater temp
2017-May-29 10:27N 01°28' E 103°48'4 6.7
2017-May-29 09:48N 01°27' E 103°52'4 7.9
2017-May-29 09:15N 01°25' E 103°56'2 8.1
2017-May-29 09:00N 01°24' E 103°57'3 6.7
2017-May-29 08:30N 01°24' E 104°01'4 6.9
2017-May-29 07:59N 01°21' E 104°03'3 5.5
2017-May-29 07:30N 01°19' E 104°04'3 4.7
2017-May-29 06:46N 01°17' E 104°02'2 6.4
2017-May-29 06:30N 01°16' E 104°00'4 8.4
2017-May-29 06:00N 01°16' E 103°56'1 2.3
2017-May-29 05:29N 01°16' E 103°55'0 0.0
2017-May-29 04:59N 01°16' E 103°55'0 0.0
2017-May-29 04:20N 01°16' E 103°55'0 0.1
2017-May-29 03:53N 01°16' E 103°55'0 0.1
2017-May-29 03:26N 01°16' E 103°55'0 0.1
2017-May-29 02:59N 01°16' E 103°55'0 0.0
2017-May-29 02:20N 01°16' E 103°55'0 0.1
2017-May-29 01:53N 01°16' E 103°55'0 0.1
2017-May-29 01:26N 01°16' E 103°55'0 0.0
2017-May-29 00:59N 01°16' E 103°55'0 0.1
2017-May-29 00:29N 01°16' E 103°55'0 0.0
2017-May-28 23:59N 01°16' E 103°55'0 0.1
2017-May-28 23:17N 01°16' E 103°55'0 0.0
2017-May-28 22:50N 01°16' E 103°55'0 0.0
2017-May-28 22:29N 01°16' E 103°55'0 0.0
2017-May-28 21:59N 01°16' E 103°55'0 0.0
2017-May-28 21:26N 01°16' E 103°55'0 0.0
2017-May-28 20:56N 01°16' E 103°55'0 0.0
2017-May-28 20:29N 01°16' E 103°55'0 0.0
2017-May-28 19:59N 01°16' E 103°55'0 0.0
2017-May-28 19:29N 01°16' E 103°55'0 0.0
2017-May-28 18:59N 01°16' E 103°55'0 0.0
2017-May-28 18:29N 01°16' E 103°55'0 0.0
2017-May-28 17:50N 01°16' E 103°55'0 0.2
2017-May-28 17:26N 01°16' E 103°55'0 0.1
2017-May-28 16:56N 01°16' E 103°55'0 0.2
2017-May-28 16:29N 01°16' E 103°55'0 0.1
2017-May-28 15:56N 01°16' E 103°55'0 0.0
2017-May-28 15:08N 01°16' E 103°55'0 0.0
2017-May-28 14:56N 01°16' E 103°55'0 0.0
2017-May-28 13:56N 01°16' E 103°55'0 0.0
2017-May-28 13:29N 01°16' E 103°55'0 0.0
2017-May-28 12:56N 01°16' E 103°55'0 0.0
2017-May-28 12:20N 01°16' E 103°55'0 0.0
2017-May-28 11:59N 01°16' E 103°55'0 0.0
2017-May-28 11:29N 01°16' E 103°55'0 0.0
2017-May-28 10:56N 01°16' E 103°55'0 0.0
2017-May-28 10:29N 01°16' E 103°55'0 0.1
2017-May-28 09:35N 01°16' E 103°55'0 0.6
2017-May-28 09:29N 01°16' E 103°55'0 0.0
2017-May-28 08:59N 01°16' E 103°55'0 0.0
2017-May-28 08:20N 01°16' E 103°55'0 0.1
2017-May-28 07:56N 01°16' E 103°55'0 0.1
2017-May-28 07:26N 01°16' E 103°55'0 0.0
2017-May-28 06:56N 01°16' E 103°55'0 0.0
2017-May-28 06:26N 01°16' E 103°55'0 0.1
2017-May-28 05:59N 01°16' E 103°55'0 0.0
2017-May-28 05:20N 01°16' E 103°55'0 0.0
2017-May-28 04:59N 01°16' E 103°55'0 0.0
2017-May-28 04:29N 01°16' E 103°55'0 0.0
2017-May-28 03:50N 01°16' E 103°55'0 0.0
2017-May-28 03:26N 01°16' E 103°55'0 0.0
2017-May-28 02:59N 01°16' E 103°55'0 0.1
2017-May-28 02:23N 01°16' E 103°55'0 0.1
2017-May-28 01:14N 01°16' E 103°55'0 0.0
2017-May-28 00:59N 01°16' E 103°55'0 0.0
2017-May-28 00:26N 01°16' E 103°55'0 0.1
2017-May-27 23:44N 01°16' E 103°55'0 0.2
2017-May-27 23:26N 01°16' E 103°55'0 0.0
2017-May-27 22:59N 01°16' E 103°55'0 0.0
2017-May-27 22:26N 01°16' E 103°55'0 0.1
2017-May-27 21:56N 01°16' E 103°55'0 0.0
2017-May-27 21:30N 01°16' E 103°55'0 0.0
2017-May-27 21:00N 01°16' E 103°55'0 0.0
2017-May-27 20:30N 01°16' E 103°55'0 0.0
2017-May-27 20:00N 01°16' E 103°55'0 0.0
2017-May-27 19:30N 01°16' E 103°55'0 0.0
2017-May-27 19:00N 01°16' E 103°55'0 0.0
2017-May-27 18:30N 01°16' E 103°55'0 0.0
2017-May-27 18:00N 01°16' E 103°55'2 4.1
2017-May-27 17:30N 01°16' E 103°57'2 4.8
2017-May-27 17:00N 01°14' E 103°57'3 5.7
2017-May-27 16:30N 01°12' E 103°54'4 8.9
2017-May-27 16:00N 01°11' E 103°50'510.5
2017-May-27 15:30N 01°08' E 103°46'611.1
2017-May-27 15:00N 01°04' E 103°41'611.6
2017-May-27 14:30N 01°05' E 103°36'10 9.7
2017-May-27 13:30N 01°13' E 103°32'4 7.9
2017-May-27 13:00N 01°17' E 103°33'4 8.4
2017-May-27 12:30N 01°21' E 103°33'0 0.0
2017-May-26 22:19N 01°21' E 103°33'0 0.0
2017-May-26 06:58N 01°21' E 103°33'0 0.0
2017-May-26 06:30N 01°21' E 103°33'1 2.6
2017-May-26 06:00N 01°20' E 103°33'5 9.2
2017-May-26 05:31N 01°16' E 103°33'2 4.1
2017-May-26 05:00N 01°14' E 103°31'3 6.3
2017-May-26 04:30N 01°15' E 103°28'1 0.5
2017-May-26 01:55N 01°15' E 103°29'0 0.2
2017-May-26 00:25N 01°15' E 103°29'0 0.0
2017-May-25 23:58N 01°15' E 103°29'0 0.0
2017-May-25 23:16N 01°15' E 103°29'0 0.0
2017-May-25 22:55N 01°15' E 103°29'0 0.0
2017-May-25 22:16N 01°15' E 103°29'0 0.0
2017-May-25 21:43N 01°15' E 103°29'0 0.1
2017-May-25 21:22N 01°15' E 103°29'0 0.0
2017-May-25 20:37N 01°15' E 103°29'0 0.0
2017-May-25 20:04N 01°15' E 103°29'0 0.1
2017-May-25 19:55N 01°15' E 103°29'0 0.1
2017-May-25 19:22N 01°15' E 103°29'0 0.5
2017-May-25 18:58N 01°15' E 103°29'0 0.1
2017-May-25 18:07N 01°15' E 103°29'0 0.0
2017-May-25 17:52N 01°15' E 103°29'0 0.0
2017-May-25 17:22N 01°15' E 103°29'0 0.0
2017-May-25 16:49N 01°15' E 103°29'0 0.0
2017-May-25 16:25N 01°15' E 103°29'0 0.0
2017-May-25 15:46N 01°15' E 103°29'0 0.0
2017-May-25 15:28N 01°15' E 103°29'0 0.0
2017-May-25 14:43N 01°15' E 103°29'0 0.0
2017-May-25 14:25N 01°15' E 103°29'0 0.2
2017-May-25 13:28N 01°15' E 103°29'0 0.2
2017-May-25 12:49N 01°15' E 103°29'0 0.2
2017-May-25 12:28N 01°15' E 103°29'0 0.1
2017-May-25 11:55N 01°15' E 103°29'0 0.0
2017-May-25 11:28N 01°15' E 103°29'0 0.0
2017-May-25 10:58N 01°15' E 103°29'0 0.1
2017-May-25 10:31N 01°15' E 103°29'0 0.0
2017-May-25 10:01N 01°15' E 103°29'0 0.0
2017-May-25 09:28N 01°15' E 103°29'0 0.0
2017-May-25 08:58N 01°15' E 103°29'0 0.0
2017-May-25 08:28N 01°15' E 103°29'0 0.1
2017-May-25 07:58N 01°15' E 103°29'0 0.1
2017-May-25 07:16N 01°15' E 103°29'0 0.0
2017-May-25 06:58N 01°15' E 103°29'0 0.1
2017-May-25 06:25N 01°15' E 103°29'0 0.1
2017-May-25 05:46N 01°15' E 103°29'0 0.3
2017-May-25 05:10N 01°15' E 103°29'0 0.1
2017-May-25 04:52N 01°15' E 103°29'0 0.1
2017-May-25 04:28N 01°15' E 103°29'0 0.1
2017-May-25 03:19N 01°15' E 103°29'0 0.0
2017-May-25 02:58N 01°15' E 103°29'0 0.1
2017-May-25 02:28N 01°15' E 103°29'0 0.0
2017-May-25 01:54N 01°15' E 103°29'0 0.0
2017-May-25 01:16N 01°15' E 103°29'0 0.2
2017-May-25 00:49N 01°15' E 103°29'0 0.3
2017-May-25 00:25N 01°15' E 103°29'0 0.2
2017-May-24 23:54N 01°15' E 103°29'0 0.0
2017-May-24 23:28N 01°15' E 103°29'0 0.0
2017-May-24 22:58N 01°15' E 103°29'0 0.0
2017-May-24 22:24N 01°15' E 103°29'0 0.1
2017-May-24 22:01N 01°15' E 103°29'0 0.0
2017-May-24 21:28N 01°15' E 103°29'0 0.0
2017-May-24 20:58N 01°15' E 103°29'0 0.0
2017-May-24 20:30N 01°15' E 103°29'0 0.0
2017-May-24 19:57N 01°15' E 103°29'0 0.0
2017-May-24 19:21N 01°15' E 103°29'0 0.1
2017-May-24 19:00N 01°15' E 103°29'0 0.3
2017-May-24 18:21N 01°15' E 103°29'0 0.2
2017-May-24 17:57N 01°15' E 103°29'0 0.0
2017-May-24 17:22N 01°15' E 103°29'0 0.0
2017-May-24 17:00N 01°15' E 103°29'0 0.0
2017-May-24 16:30N 01°15' E 103°29'0 0.1
2017-May-24 16:01N 01°15' E 103°29'0 0.0
2017-May-24 15:30N 01°15' E 103°29'0 0.0
2017-May-24 12:31N 01°15' E 103°29'0 0.2
2017-May-24 11:57N 01°15' E 103°29'0 0.3
2017-May-24 11:30N 01°15' E 103°29'0 0.1
2017-May-24 11:00N 01°15' E 103°29'0 0.0
2017-May-24 06:12N 01°15' E 103°29'0 0.0
2017-May-23 22:48N 01°15' E 103°29'0 0.1
2017-May-23 22:30N 01°15' E 103°29'0 0.0
2017-May-23 21:51N 01°15' E 103°29'0 0.0
2017-May-23 20:57N 01°15' E 103°29'0 0.1
2017-May-23 20:30N 01°15' E 103°29'0 0.0
2017-May-23 19:57N 01°15' E 103°29'0 0.0
2017-May-23 19:30N 01°15' E 103°29'0 0.0
2017-May-23 18:59N 01°15' E 103°29'1 1.6
2017-May-23 18:30N 01°14' E 103°29'2 4.3
2017-May-23 17:58N 01°12' E 103°30'2 3.8
2017-May-23 17:30N 01°11' E 103°29'3 4.7
2017-May-23 16:58N 01°11' E 103°27'5 9.1
2017-May-23 16:27N 01°13' E 103°23'511.2
2017-May-23 15:59N 01°16' E 103°19'31710.9
2017-May-22 11:02N 05°19' E 099°54'512.9
2017-May-22 10:38N 05°23' E 099°56'212.7
2017-May-22 10:30N 05°25' E 099°57'612.4
2017-May-22 10:00N 05°30' E 099°60'5 9.6
2017-May-22 09:30N 05°35' E 100°02'0 0.6
2017-May-22 09:00N 05°35' E 100°02'0 0.5
2017-May-22 08:16N 05°35' E 100°02'0 0.2
2017-May-22 07:44N 05°34' E 100°02'3 4.2
2017-May-22 07:01N 05°35' E 099°59'0 6.0
2017-May-22 07:00N 05°35' E 099°59'5 6.5
2017-May-22 06:17N 05°36' E 099°55'2 8.1
2017-May-22 05:58N 05°37' E 099°53'  

Dump ship's entire track history